createdAt,value
2019-01-10T00:00:19.544Z,1.10
2019-01-10T00:01:24.096Z,1.20
2019-01-10T00:02:28.556Z,1.20
2019-01-10T00:03:33.047Z,1.20
2019-01-10T00:04:37.586Z,1.20
2019-01-10T00:05:41.965Z,1.20
2019-01-10T00:06:46.344Z,1.20
2019-01-10T00:07:50.585Z,1.20
2019-01-10T00:08:54.941Z,1.20
2019-01-10T00:09:59.363Z,1.20
2019-01-10T00:11:04.098Z,1.20
2019-01-10T00:12:08.867Z,1.20
2019-01-10T00:13:13.439Z,1.10
2019-01-10T00:14:17.809Z,1.20
2019-01-10T00:15:23.113Z,1.20
2019-01-10T00:16:27.877Z,1.10
2019-01-10T00:17:32.206Z,1.10
2019-01-10T00:18:36.633Z,1.10
2019-01-10T00:19:41.325Z,1.10
2019-01-10T00:20:45.863Z,1.10
2019-01-10T00:21:50.366Z,1.10
2019-01-10T00:22:54.764Z,1.10
2019-01-10T00:23:59.101Z,1.10
2019-01-10T00:25:04.810Z,1.10
2019-01-10T00:26:09.446Z,1.10
2019-01-10T00:27:14.025Z,1.10
2019-01-10T00:28:18.616Z,1.10
2019-01-10T00:29:23.024Z,1.10
2019-01-10T00:30:27.320Z,1.10
2019-01-10T00:31:31.778Z,1.10
2019-01-10T00:32:36.448Z,1.10
2019-01-10T00:33:40.848Z,1.10
2019-01-10T00:34:45.444Z,1.10
2019-01-10T00:35:50.127Z,1.00
2019-01-10T00:36:54.623Z,1.00
2019-01-10T00:37:59.069Z,1.00
2019-01-10T00:39:06.033Z,1.00
2019-01-10T00:40:11.964Z,1.00
2019-01-10T00:41:16.938Z,1.00
2019-01-10T00:42:21.440Z,1.00
2019-01-10T00:43:26.151Z,1.00
2019-01-10T00:44:30.547Z,1.00
2019-01-10T00:45:34.875Z,1.00
2019-01-10T00:46:39.253Z,1.00
2019-01-10T00:47:44.142Z,1.00
2019-01-10T00:48:48.709Z,1.00
2019-01-10T00:49:53.345Z,1.00
2019-01-10T00:50:57.937Z,1.00
2019-01-10T00:52:02.366Z,1.00
2019-01-10T00:53:06.778Z,0.90
2019-01-10T00:54:11.081Z,0.90
2019-01-10T00:55:15.552Z,0.90
2019-01-10T00:56:19.796Z,0.90
2019-01-10T00:57:24.299Z,0.90
2019-01-10T00:58:28.857Z,1.00
2019-01-10T00:59:33.580Z,0.90
2019-01-10T01:00:37.806Z,1.00
2019-01-10T01:01:42.237Z,0.90
2019-01-10T01:02:46.590Z,0.90
2019-01-10T01:03:50.965Z,0.90
2019-01-10T01:04:55.116Z,0.90
2019-01-10T01:05:59.778Z,0.90
2019-01-10T01:07:04.594Z,0.80
2019-01-10T01:08:09.210Z,0.90
2019-01-10T01:09:13.586Z,0.90
2019-01-10T01:10:19.872Z,0.80
2019-01-10T01:11:24.178Z,0.80
2019-01-10T01:12:28.495Z,0.90
2019-01-10T01:13:32.970Z,0.80
2019-01-10T01:14:37.615Z,0.90
2019-01-10T01:15:42.115Z,0.90
2019-01-10T01:16:46.578Z,0.90
2019-01-10T01:17:50.863Z,0.80
2019-01-10T01:18:55.255Z,0.80
2019-01-10T01:20:00.263Z,0.80
2019-01-10T01:21:05.214Z,0.80
2019-01-10T01:22:10.020Z,0.80
2019-01-10T01:23:14.443Z,0.80
2019-01-10T01:24:19.044Z,0.80
2019-01-10T01:25:23.367Z,0.80
2019-01-10T01:26:27.723Z,0.80
2019-01-10T01:27:32.206Z,0.80
2019-01-10T01:28:36.882Z,0.70
2019-01-10T01:29:41.406Z,0.80
2019-01-10T01:30:45.814Z,0.80
2019-01-10T01:31:50.198Z,0.70
2019-01-10T01:32:54.674Z,0.70
2019-01-10T01:33:59.102Z,0.70
2019-01-10T01:35:04.334Z,0.80
2019-01-10T01:36:08.964Z,0.80
2019-01-10T01:37:13.298Z,0.80
2019-01-10T01:38:18.003Z,0.80
2019-01-10T01:39:22.851Z,0.80
2019-01-10T01:40:27.262Z,0.80
2019-01-10T01:41:31.721Z,0.80
2019-01-10T01:42:36.170Z,0.80
2019-01-10T01:43:40.409Z,0.90
2019-01-10T01:44:44.787Z,0.90
2019-01-10T01:45:49.183Z,0.90
2019-01-10T01:46:53.710Z,0.90
2019-01-10T01:47:58.140Z,0.90
2019-01-10T01:49:02.829Z,0.90
2019-01-10T01:50:11.379Z,0.90
2019-01-10T01:51:15.923Z,0.90
2019-01-10T01:52:20.265Z,0.90
2019-01-10T01:53:24.620Z,0.90
2019-01-10T01:54:29.161Z,1.00
2019-01-10T01:55:33.814Z,0.90
2019-01-10T01:56:38.045Z,1.00
2019-01-10T01:57:42.450Z,1.00
2019-01-10T01:58:46.851Z,1.00
2019-01-10T01:59:51.341Z,1.00
2019-01-10T02:00:55.900Z,1.00
2019-01-10T02:02:00.504Z,1.10
2019-01-10T02:03:05.060Z,1.10
2019-01-10T02:04:09.611Z,1.10
2019-01-10T02:05:14.147Z,1.10
2019-01-10T02:06:18.855Z,1.10
2019-01-10T02:07:23.138Z,1.10
2019-01-10T02:08:27.489Z,1.10
2019-01-10T02:09:31.870Z,1.10
2019-01-10T02:10:36.345Z,1.10
2019-01-10T02:11:40.933Z,1.10
2019-01-10T02:12:45.399Z,1.20
2019-01-10T02:13:49.870Z,1.20
2019-01-10T02:14:54.130Z,1.20
2019-01-10T02:15:58.529Z,1.20
2019-01-10T02:17:03.283Z,1.20
2019-01-10T02:18:07.846Z,1.20
2019-01-10T02:19:12.437Z,1.20
2019-01-10T02:20:17.363Z,1.20
2019-01-10T02:21:22.036Z,1.30
2019-01-10T02:22:26.533Z,1.30
2019-01-10T02:23:31.222Z,1.20
2019-01-10T02:24:35.535Z,1.30
2019-01-10T02:25:40.049Z,1.30
2019-01-10T02:26:44.524Z,1.30
2019-01-10T02:27:49.119Z,1.30
2019-01-10T02:28:53.620Z,1.30
2019-01-10T02:29:58.075Z,1.20
2019-01-10T02:31:02.502Z,1.30
2019-01-10T02:32:06.946Z,1.20
2019-01-10T02:33:11.631Z,1.20
2019-01-10T02:34:16.142Z,1.20
2019-01-10T02:35:20.667Z,1.20
2019-01-10T02:36:25.336Z,1.30
2019-01-10T02:37:29.774Z,1.20
2019-01-10T02:38:34.290Z,1.20
2019-01-10T02:39:38.631Z,1.20
2019-01-10T02:40:43.014Z,1.20
2019-01-10T02:41:47.421Z,1.20
2019-01-10T02:42:51.830Z,1.20
2019-01-10T02:43:56.342Z,1.20
2019-01-10T02:45:00.883Z,1.20
2019-01-10T02:46:05.250Z,1.20
2019-01-10T02:47:09.585Z,1.20
2019-01-10T02:48:14.006Z,1.10
2019-01-10T02:49:18.495Z,1.10
2019-01-10T02:50:22.937Z,1.10
2019-01-10T02:51:27.335Z,1.10
2019-01-10T02:52:31.823Z,1.10
2019-01-10T02:53:36.340Z,1.10
2019-01-10T02:54:40.887Z,1.00
2019-01-10T02:55:45.280Z,1.10
2019-01-10T02:56:49.813Z,1.10
2019-01-10T02:57:54.540Z,1.10
2019-01-10T02:58:58.847Z,1.10
2019-01-10T03:00:05.458Z,1.10
2019-01-10T03:01:10.077Z,1.10
2019-01-10T03:02:14.455Z,1.10
2019-01-10T03:03:18.907Z,1.10
2019-01-10T03:04:23.224Z,1.10
2019-01-10T03:05:27.571Z,1.10
2019-01-10T03:06:31.994Z,1.10
2019-01-10T03:07:36.440Z,1.10
2019-01-10T03:08:41.016Z,1.00
2019-01-10T03:09:45.689Z,1.00
2019-01-10T03:10:49.959Z,1.00
2019-01-10T03:11:54.335Z,1.10
2019-01-10T03:12:58.654Z,1.10
2019-01-10T03:14:03.226Z,1.00
2019-01-10T03:15:08.194Z,1.10
2019-01-10T03:16:13.044Z,1.10
2019-01-10T03:17:17.922Z,1.10
2019-01-10T03:18:22.480Z,1.10
2019-01-10T03:19:26.874Z,1.10
2019-01-10T03:22:32.267Z,1.10
2019-01-10T03:23:36.921Z,1.10
2019-01-10T03:24:41.412Z,1.10
2019-01-10T03:25:46.175Z,1.10
2019-01-10T03:26:50.471Z,1.20
2019-01-10T03:27:55.030Z,1.20
2019-01-10T03:28:59.494Z,1.20
2019-01-10T03:30:06.106Z,1.20
2019-01-10T03:31:10.605Z,1.20
2019-01-10T03:32:15.205Z,1.20
2019-01-10T03:33:19.561Z,1.20
2019-01-10T03:34:23.935Z,1.20
2019-01-10T03:35:28.326Z,1.20
2019-01-10T03:36:32.880Z,1.20
2019-01-10T03:37:37.387Z,1.20
2019-01-10T03:38:41.940Z,1.20
2019-01-10T03:39:46.197Z,1.20
2019-01-10T03:40:50.496Z,1.20
2019-01-10T03:41:54.751Z,1.10
2019-01-10T03:42:59.125Z,1.10
2019-01-10T03:44:03.757Z,1.10
2019-01-10T03:45:11.093Z,1.10
2019-01-10T03:46:15.467Z,1.10
2019-01-10T03:47:19.759Z,1.10
2019-01-10T03:48:24.066Z,1.10
2019-01-10T03:49:28.435Z,1.10
2019-01-10T03:50:32.899Z,1.10
2019-01-10T03:51:37.381Z,1.10
2019-01-10T03:52:42.035Z,1.00
2019-01-10T03:53:46.590Z,1.00
2019-01-10T03:54:51.493Z,1.00
2019-01-10T03:55:55.864Z,1.00
2019-01-10T03:57:00.213Z,1.00
2019-01-10T03:58:04.633Z,1.00
2019-01-10T03:59:09.019Z,1.00
2019-01-10T04:00:18.845Z,0.90
2019-01-10T04:01:23.459Z,1.00
2019-01-10T04:02:27.825Z,0.90
2019-01-10T04:03:32.111Z,0.90
2019-01-10T04:04:36.595Z,0.90
2019-01-10T04:05:41.132Z,0.90
2019-01-10T04:06:45.784Z,0.90
2019-01-10T04:07:50.195Z,0.90
2019-01-10T04:08:54.577Z,1.00
2019-01-10T04:09:59.045Z,1.00
2019-01-10T04:11:03.524Z,1.00
2019-01-10T04:12:07.881Z,0.90
2019-01-10T04:13:12.254Z,1.00
2019-01-10T04:14:16.793Z,1.00
2019-01-10T04:15:21.372Z,1.00
2019-01-10T04:16:25.795Z,1.00
2019-01-10T04:17:30.222Z,1.00
2019-01-10T04:18:34.647Z,1.00
2019-01-10T04:19:39.052Z,1.00
2019-01-10T04:20:43.389Z,1.10
2019-01-10T04:21:50.096Z,1.10
2019-01-10T04:22:55.313Z,1.10
2019-01-10T04:23:59.723Z,1.10
2019-01-10T04:25:04.701Z,1.10
2019-01-10T04:26:09.203Z,1.10
2019-01-10T04:27:13.487Z,1.10
2019-01-10T04:28:17.759Z,1.10
2019-01-10T04:29:22.262Z,1.10
2019-01-10T04:30:26.767Z,1.10
2019-01-10T04:31:31.440Z,1.10
2019-01-10T04:32:35.999Z,1.10
2019-01-10T04:33:40.581Z,1.10
2019-01-10T04:34:44.904Z,1.20
2019-01-10T04:35:49.238Z,1.20
2019-01-10T04:36:53.480Z,1.10
2019-01-10T04:37:57.920Z,1.20
2019-01-10T04:39:04.762Z,1.20
2019-01-10T04:40:11.665Z,1.20
2019-01-10T04:41:15.939Z,1.20
2019-01-10T04:42:21.791Z,1.20
2019-01-10T04:43:26.704Z,1.20
2019-01-10T04:44:31.315Z,1.20
2019-01-10T04:45:35.810Z,1.20
2019-01-10T04:46:40.222Z,1.20
2019-01-10T04:47:44.628Z,1.20
2019-01-10T04:48:49.024Z,1.20
2019-01-10T04:49:53.247Z,1.20
2019-01-10T04:50:57.591Z,1.20
2019-01-10T04:52:02.164Z,1.20
2019-01-10T04:53:06.802Z,1.20
2019-01-10T04:54:11.732Z,1.20
2019-01-10T04:55:16.019Z,1.20
2019-01-10T04:56:20.390Z,1.20
2019-01-10T04:57:24.706Z,1.20
2019-01-10T04:58:29.047Z,1.20
2019-01-10T04:59:33.455Z,1.20
2019-01-10T05:00:38.019Z,1.20
2019-01-10T05:01:42.596Z,1.20
2019-01-10T05:02:47.064Z,1.20
2019-01-10T05:03:51.438Z,1.20
2019-01-10T05:04:55.875Z,1.10
2019-01-10T05:06:00.202Z,1.10
2019-01-10T05:07:04.528Z,1.10
2019-01-10T05:08:09.549Z,1.10
2019-01-10T05:09:14.043Z,1.10
2019-01-10T05:10:18.646Z,1.10
2019-01-10T05:11:23.303Z,1.10
2019-01-10T05:12:27.715Z,1.10
2019-01-10T05:13:32.229Z,1.10
2019-01-10T05:14:36.508Z,1.10
2019-01-10T05:15:40.865Z,1.00
2019-01-10T05:16:45.359Z,1.10
2019-01-10T05:17:49.822Z,1.10
2019-01-10T05:18:54.516Z,1.10
2019-01-10T05:19:59.021Z,1.10
2019-01-10T05:21:03.494Z,1.10
2019-01-10T05:22:08.218Z,1.00
2019-01-10T05:23:12.747Z,1.00
2019-01-10T05:24:17.198Z,1.10
2019-01-10T05:25:21.676Z,1.00
2019-01-10T05:26:26.155Z,1.00
2019-01-10T05:27:30.669Z,1.00
2019-01-10T05:28:35.151Z,1.00
2019-01-10T05:29:39.658Z,1.00
2019-01-10T05:30:43.970Z,1.10
2019-01-10T05:31:48.222Z,1.00
2019-01-10T05:32:53.607Z,1.00
2019-01-10T05:33:58.175Z,1.00
2019-01-10T05:35:03.020Z,1.00
2019-01-10T05:36:07.766Z,1.00
2019-01-10T05:37:12.202Z,1.00
2019-01-10T05:38:16.553Z,1.00
2019-01-10T05:39:21.036Z,1.00
2019-01-10T05:40:25.323Z,1.00
2019-01-10T05:41:29.792Z,1.00
2019-01-10T05:42:34.219Z,1.00
2019-01-10T05:43:38.905Z,1.00
2019-01-10T05:44:43.317Z,1.00
2019-01-10T05:45:47.842Z,1.00
2019-01-10T05:46:52.144Z,1.00
2019-01-10T05:47:56.476Z,1.00
2019-01-10T05:49:00.857Z,0.90
2019-01-10T05:50:06.535Z,1.00
2019-01-10T05:51:11.515Z,1.00
2019-01-10T05:52:15.978Z,1.00
2019-01-10T05:53:20.247Z,1.00
2019-01-10T05:54:24.581Z,1.00
2019-01-10T05:55:28.984Z,1.00
2019-01-10T05:56:33.298Z,1.00
2019-01-10T05:57:37.803Z,1.00
2019-01-10T05:58:42.064Z,1.00
2019-01-10T05:59:46.817Z,1.00
2019-01-10T06:00:51.394Z,1.00
2019-01-10T06:01:55.815Z,1.00
2019-01-10T06:03:00.122Z,1.00
2019-01-10T06:04:04.523Z,1.00
2019-01-10T06:05:10.598Z,1.00
2019-01-10T06:06:15.590Z,1.00
2019-01-10T06:07:20.384Z,1.00
2019-01-10T06:08:24.916Z,1.00
2019-01-10T06:09:29.388Z,1.00
2019-01-10T06:10:33.710Z,1.00
2019-01-10T06:11:37.964Z,1.00
2019-01-10T06:12:42.350Z,1.00
2019-01-10T06:14:00.506Z,0.90
2019-01-10T06:15:06.794Z,1.00
2019-01-10T06:16:11.653Z,0.90
2019-01-10T06:17:16.111Z,0.90
2019-01-10T06:18:20.632Z,0.90
2019-01-10T06:19:27.017Z,0.90
2019-01-10T06:20:31.799Z,0.90
2019-01-10T06:21:36.439Z,0.90
2019-01-10T06:22:40.960Z,0.90
2019-01-10T06:23:45.628Z,1.00
2019-01-10T06:24:49.968Z,1.00
2019-01-10T06:25:54.450Z,1.00
2019-01-10T06:26:58.912Z,1.00
2019-01-10T06:28:03.194Z,0.90
2019-01-10T06:29:07.574Z,0.90
2019-01-10T06:30:14.780Z,0.90
2019-01-10T06:31:19.502Z,0.90
2019-01-10T06:32:23.919Z,0.90
2019-01-10T06:33:28.285Z,0.90
2019-01-10T06:34:32.786Z,0.90
2019-01-10T06:35:37.531Z,1.00
2019-01-10T06:36:42.115Z,0.90
2019-01-10T06:37:46.452Z,1.00
2019-01-10T06:38:50.936Z,0.90
2019-01-10T06:39:55.438Z,0.90
2019-01-10T06:40:59.793Z,0.90
2019-01-10T06:42:04.537Z,0.90
2019-01-10T06:43:09.374Z,0.90
2019-01-10T06:44:13.746Z,1.00
2019-01-10T06:45:18.301Z,1.00
2019-01-10T06:46:22.783Z,1.00
2019-01-10T06:47:27.236Z,1.00
2019-01-10T06:48:31.681Z,1.00
2019-01-10T06:49:36.119Z,1.00
2019-01-10T06:50:40.522Z,1.00
2019-01-10T06:51:44.905Z,0.90
2019-01-10T06:52:49.294Z,0.90
2019-01-10T06:53:53.854Z,0.90
2019-01-10T06:54:58.362Z,0.90
2019-01-10T06:56:02.882Z,0.90
2019-01-10T06:57:07.240Z,0.90
2019-01-10T06:58:11.779Z,1.00
2019-01-10T06:59:16.127Z,0.90
2019-01-10T07:00:22.354Z,1.00
2019-01-10T07:01:27.164Z,1.00
2019-01-10T07:02:31.665Z,1.00
2019-01-10T07:03:36.261Z,1.00
2019-01-10T07:04:40.696Z,1.00
2019-01-10T07:05:45.039Z,1.00
2019-01-10T07:06:49.367Z,1.00
2019-01-10T07:07:56.602Z,1.00
2019-01-10T07:09:00.237Z,1.00
2019-01-10T07:10:08.547Z,1.00
2019-01-10T07:11:13.364Z,1.00
2019-01-10T07:12:17.610Z,1.00
2019-01-10T07:13:21.920Z,1.00
2019-01-10T07:14:26.295Z,1.00
2019-01-10T07:15:30.722Z,1.00
2019-01-10T07:16:35.328Z,1.00
2019-01-10T07:17:39.879Z,1.00
2019-01-10T07:18:44.365Z,1.00
2019-01-10T07:19:48.867Z,1.00
2019-01-10T07:20:53.128Z,1.00
2019-01-10T07:21:57.508Z,1.00
2019-01-10T07:23:01.887Z,1.00
2019-01-10T07:24:06.331Z,1.00
2019-01-10T07:25:10.807Z,1.10
2019-01-10T07:26:15.189Z,1.10
2019-01-10T07:27:19.659Z,1.10
2019-01-10T07:28:27.289Z,1.10
2019-01-10T07:29:32.018Z,1.10
2019-01-10T07:30:36.530Z,1.00
2019-01-10T07:31:41.116Z,1.10
2019-01-10T07:32:45.560Z,1.10
2019-01-10T07:33:50.082Z,1.10
2019-01-10T07:34:59.045Z,1.10
2019-01-10T07:36:03.663Z,1.10
2019-01-10T07:37:13.034Z,1.10
2019-01-10T07:38:15.454Z,1.10
2019-01-10T07:39:19.895Z,1.10
2019-01-10T07:40:25.071Z,1.10
2019-01-10T07:41:29.495Z,1.10
2019-01-10T07:42:33.987Z,1.10
2019-01-10T07:43:38.895Z,1.10
2019-01-10T07:44:43.419Z,1.10
2019-01-10T07:45:47.885Z,1.10
2019-01-10T07:46:52.252Z,1.10
2019-01-10T07:47:56.635Z,1.20
2019-01-10T07:49:00.836Z,1.20
2019-01-10T07:50:05.374Z,1.20
2019-01-10T07:51:10.311Z,1.20
2019-01-10T07:52:14.715Z,1.20
2019-01-10T07:53:19.352Z,1.20
2019-01-10T07:54:23.999Z,1.20
2019-01-10T07:55:28.654Z,1.20
2019-01-10T07:56:32.953Z,1.20
2019-01-10T07:57:38.432Z,1.20
2019-01-10T07:58:43.375Z,1.20
2019-01-10T07:59:47.856Z,1.20
2019-01-10T08:00:53.949Z,1.20
2019-01-10T08:01:58.851Z,1.20
2019-01-10T08:03:03.698Z,1.20
2019-01-10T08:04:08.064Z,1.20
2019-01-10T08:05:12.605Z,1.20
2019-01-10T08:06:17.043Z,1.20
2019-01-10T08:07:21.584Z,1.20
2019-01-10T08:08:26.327Z,1.30
2019-01-10T08:09:30.857Z,1.30
2019-01-10T08:10:35.813Z,1.30
2019-01-10T08:11:40.152Z,1.30
2019-01-10T08:12:45.191Z,1.30
2019-01-10T08:13:49.853Z,1.30
2019-01-10T08:14:54.263Z,1.30
2019-01-10T08:15:58.826Z,1.30
2019-01-10T08:17:03.372Z,1.30
2019-01-10T08:18:07.634Z,1.30
2019-01-10T08:19:11.963Z,1.40
2019-01-10T08:20:16.411Z,1.40
2019-01-10T08:21:21.151Z,1.40
2019-01-10T08:22:27.973Z,1.40
2019-01-10T08:23:32.084Z,1.40
2019-01-10T08:24:36.489Z,1.40
2019-01-10T08:25:40.973Z,1.40
2019-01-10T08:26:45.339Z,1.40
2019-01-10T08:27:49.587Z,1.40
2019-01-10T08:28:53.885Z,1.40
2019-01-10T08:29:58.387Z,1.40
2019-01-10T08:31:03.000Z,1.40
2019-01-10T08:32:07.995Z,1.40
2019-01-10T08:33:12.400Z,1.40
2019-01-10T08:34:16.826Z,1.50
2019-01-10T08:35:23.523Z,1.50
2019-01-10T08:36:32.597Z,1.50
2019-01-10T08:37:34.839Z,1.50
2019-01-10T08:38:39.198Z,1.50
2019-01-10T08:39:43.616Z,1.50
2019-01-10T08:40:47.897Z,1.50
2019-01-10T08:41:52.233Z,1.50
2019-01-10T08:42:56.718Z,1.50
2019-01-10T08:44:01.605Z,1.50
2019-01-10T08:45:06.685Z,1.50
2019-01-10T08:46:11.434Z,1.50
2019-01-10T08:47:15.831Z,1.60
2019-01-10T08:48:20.163Z,1.60
2019-01-10T08:49:24.504Z,1.60
2019-01-10T08:50:28.851Z,1.60
2019-01-10T08:51:33.436Z,1.60
2019-01-10T08:52:38.040Z,1.60
2019-01-10T08:53:42.835Z,1.60
2019-01-10T08:54:47.438Z,1.70
2019-01-10T08:55:51.797Z,1.70
2019-01-10T08:56:56.136Z,1.60
2019-01-10T08:58:00.539Z,1.60
2019-01-10T08:59:04.808Z,1.70
2019-01-10T09:00:12.481Z,1.70
2019-01-10T09:01:17.196Z,1.70
2019-01-10T09:02:21.566Z,1.70
2019-01-10T09:03:26.003Z,1.70
2019-01-10T09:04:30.338Z,1.70
2019-01-10T09:05:34.805Z,1.60
2019-01-10T09:06:39.615Z,1.70
2019-01-10T09:07:44.205Z,1.70
2019-01-10T09:08:48.634Z,1.70
2019-01-10T09:09:53.161Z,1.70
2019-01-10T09:10:57.711Z,1.70
2019-01-10T09:12:02.029Z,1.70
2019-01-10T09:13:06.448Z,1.70
2019-01-10T09:14:10.692Z,1.70
2019-01-10T09:15:23.053Z,1.70
2019-01-10T09:16:21.536Z,1.70
2019-01-10T09:17:26.165Z,1.80
2019-01-10T09:18:30.635Z,1.80
2019-01-10T09:19:35.108Z,1.80
2019-01-10T09:20:39.404Z,1.80
2019-01-10T09:21:43.846Z,1.90
2019-01-10T09:22:48.230Z,1.80
2019-01-10T09:23:52.759Z,1.90
2019-01-10T09:24:57.276Z,1.90
2019-01-10T09:26:01.732Z,1.90
2019-01-10T09:27:06.355Z,1.90
2019-01-10T09:28:10.652Z,1.80
2019-01-10T09:29:14.935Z,1.90
2019-01-10T09:30:20.624Z,1.90
2019-01-10T09:31:25.359Z,2.00
2019-01-10T09:32:29.810Z,2.00
2019-01-10T09:33:34.375Z,2.00
2019-01-10T09:34:39.056Z,2.00
2019-01-10T09:35:43.481Z,2.10
2019-01-10T09:36:47.875Z,2.10
2019-01-10T09:37:52.188Z,2.10
2019-01-10T09:38:56.503Z,2.10
2019-01-10T09:40:01.006Z,2.10
2019-01-10T09:41:05.519Z,2.20
2019-01-10T09:42:10.091Z,2.10
2019-01-10T09:43:14.759Z,2.10
2019-01-10T09:44:19.587Z,2.10
2019-01-10T09:45:24.619Z,2.10
2019-01-10T09:46:29.027Z,2.10
2019-01-10T09:47:33.374Z,2.10
2019-01-10T09:48:38.057Z,2.10
2019-01-10T09:49:42.501Z,2.10
2019-01-10T09:50:47.348Z,2.20
2019-01-10T09:51:52.044Z,2.20
2019-01-10T09:52:56.548Z,2.10
2019-01-10T09:54:00.848Z,2.20
2019-01-10T09:55:05.449Z,2.20
2019-01-10T09:56:10.238Z,2.20
2019-01-10T09:57:14.694Z,2.20
2019-01-10T09:58:19.214Z,2.20
2019-01-10T09:59:23.527Z,2.10
2019-01-10T10:00:29.088Z,2.10
2019-01-10T10:01:33.709Z,2.10
2019-01-10T10:02:38.139Z,2.10
2019-01-10T10:03:42.702Z,2.10
2019-01-10T10:04:47.198Z,2.10
2019-01-10T10:05:51.771Z,2.20
2019-01-10T10:06:56.169Z,2.30
2019-01-10T10:08:00.489Z,2.20
2019-01-10T10:09:06.925Z,2.30
2019-01-10T10:10:13.294Z,2.30
2019-01-10T10:11:17.595Z,2.30
2019-01-10T10:12:22.197Z,2.30
2019-01-10T10:13:26.738Z,2.30
2019-01-10T10:14:31.136Z,2.40
2019-01-10T10:15:35.519Z,2.40
2019-01-10T10:16:39.868Z,2.40
2019-01-10T10:17:44.261Z,2.40
2019-01-10T10:18:48.772Z,2.40
2019-01-10T10:19:53.431Z,2.40
2019-01-10T10:20:58.199Z,2.40
2019-01-10T10:22:03.501Z,2.50
2019-01-10T10:23:07.819Z,2.50
2019-01-10T10:24:12.139Z,2.50
2019-01-10T10:25:16.424Z,2.60
2019-01-10T10:26:23.099Z,2.50
2019-01-10T10:27:27.925Z,2.50
2019-01-10T10:28:32.868Z,2.60
2019-01-10T10:29:37.267Z,2.60
2019-01-10T10:30:41.573Z,2.60
2019-01-10T10:31:45.926Z,2.70
2019-01-10T10:32:50.360Z,2.70
2019-01-10T10:33:54.948Z,2.70
2019-01-10T10:34:59.392Z,2.60
2019-01-10T10:36:04.409Z,2.60
2019-01-10T10:37:08.874Z,2.60
2019-01-10T10:38:13.199Z,2.60
2019-01-10T10:39:17.690Z,2.60
2019-01-10T10:40:22.087Z,2.60
2019-01-10T10:41:26.320Z,2.60
2019-01-10T10:42:30.811Z,2.60
2019-01-10T10:43:35.240Z,2.60
2019-01-10T10:44:39.948Z,2.60
2019-01-10T10:45:44.490Z,2.60
2019-01-10T10:46:48.769Z,2.60
2019-01-10T10:47:53.219Z,2.60
2019-01-10T10:48:57.531Z,2.60
2019-01-10T10:50:02.025Z,2.60
2019-01-10T10:51:06.844Z,2.70
2019-01-10T10:52:12.553Z,2.90
2019-01-10T10:53:17.172Z,2.90
2019-01-10T10:54:21.636Z,2.80
2019-01-10T10:55:25.940Z,2.70
2019-01-10T10:56:30.227Z,2.80
2019-01-10T10:57:34.714Z,2.70
2019-01-10T10:58:39.447Z,2.80
2019-01-10T10:59:44.035Z,2.80
2019-01-10T11:00:48.582Z,2.80
2019-01-10T11:01:52.976Z,2.90
2019-01-10T11:02:57.867Z,2.80
2019-01-10T11:04:02.482Z,2.80
2019-01-10T11:05:07.540Z,2.80
2019-01-10T11:06:12.255Z,2.70
2019-01-10T11:07:16.820Z,2.80
2019-01-10T11:08:21.260Z,2.80
2019-01-10T11:09:25.784Z,2.90
2019-01-10T11:10:30.327Z,2.90
2019-01-10T11:11:34.990Z,2.90
2019-01-10T11:12:39.361Z,2.90
2019-01-10T11:13:43.858Z,2.80
2019-01-10T11:14:48.527Z,2.80
2019-01-10T11:15:53.082Z,2.70
2019-01-10T11:16:57.714Z,2.80
2019-01-10T11:18:02.528Z,2.80
2019-01-10T11:19:07.239Z,2.90
2019-01-10T11:20:14.377Z,2.90
2019-01-10T11:21:20.637Z,2.90
2019-01-10T11:22:25.638Z,2.90
2019-01-10T11:23:30.032Z,2.90
2019-01-10T11:24:34.572Z,2.90
2019-01-10T11:25:38.899Z,2.90
2019-01-10T11:26:43.248Z,2.90
2019-01-10T11:27:47.600Z,2.90
2019-01-10T11:28:52.068Z,2.90
2019-01-10T11:29:56.556Z,2.90
2019-01-10T11:31:01.126Z,3.00
2019-01-10T11:32:13.112Z,3.00
2019-01-10T11:33:11.948Z,3.00
2019-01-10T11:34:16.291Z,3.00
2019-01-10T11:35:20.649Z,3.00
2019-01-10T11:36:25.119Z,3.10
2019-01-10T11:37:29.519Z,3.10
2019-01-10T11:38:34.106Z,3.10
2019-01-10T11:39:41.979Z,3.20
2019-01-10T11:40:46.446Z,3.20
2019-01-10T11:41:50.946Z,3.10
2019-01-10T11:42:55.389Z,3.10
2019-01-10T11:43:59.932Z,3.10
2019-01-10T11:45:06.327Z,3.20
2019-01-10T11:46:19.239Z,3.20
2019-01-10T11:47:17.435Z,3.20
2019-01-10T11:48:22.107Z,3.20
2019-01-10T11:49:26.590Z,3.30
2019-01-10T11:50:31.017Z,3.30
2019-01-10T11:51:35.712Z,3.40
2019-01-10T11:52:40.354Z,3.40
2019-01-10T11:53:44.798Z,3.40
2019-01-10T11:54:50.003Z,3.40
2019-01-10T11:55:54.347Z,3.40
2019-01-10T11:56:58.735Z,3.40
2019-01-10T11:58:58.980Z,3.40
2019-01-10T12:00:01.701Z,3.50
2019-01-10T12:01:21.409Z,3.50
2019-01-10T12:02:41.654Z,3.50
2019-01-10T12:03:44.871Z,3.50
2019-01-10T12:05:04.983Z,3.50
2019-01-10T12:06:08.588Z,3.60
2019-01-10T12:07:11.941Z,3.50
2019-01-10T12:08:31.769Z,3.50
2019-01-10T12:09:51.574Z,3.60
2019-01-10T12:11:11.367Z,3.60
2019-01-10T12:13:00.464Z,3.70
2019-01-10T12:14:27.263Z,3.70
2019-01-10T12:15:54.097Z,3.70
2019-01-10T12:17:20.890Z,3.70
2019-01-10T12:18:47.671Z,3.70
2019-01-10T12:20:14.785Z,3.70
2019-01-10T12:21:22.127Z,3.70
2019-01-10T12:22:49.033Z,3.70
2019-01-10T12:24:15.927Z,3.80
2019-01-10T12:25:42.788Z,3.70
2019-01-10T12:27:09.644Z,3.70
2019-01-10T12:28:36.484Z,3.80
2019-01-10T12:32:11.493Z,3.80
2019-01-10T12:33:38.403Z,3.80
2019-01-10T12:35:05.367Z,3.70
2019-01-10T12:37:59.160Z,3.80
2019-01-10T12:39:25.972Z,3.70
2019-01-10T12:40:52.936Z,3.80
2019-01-10T12:42:19.821Z,3.70
2019-01-10T12:43:46.624Z,3.80
2019-01-10T12:45:14.146Z,3.90
2019-01-10T12:46:40.998Z,3.80
2019-01-10T12:48:07.878Z,3.80
2019-01-10T12:49:34.675Z,3.90
2019-01-10T12:51:01.488Z,3.90
2019-01-10T12:52:35.119Z,4.00
2019-01-10T12:53:57.150Z,3.90
2019-01-10T12:55:23.979Z,3.90
2019-01-10T12:56:50.789Z,3.90
2019-01-10T12:58:17.786Z,3.90
2019-01-10T12:59:44.679Z,3.90
2019-01-10T13:01:11.515Z,4.00
2019-01-10T13:02:38.502Z,4.00
2019-01-10T13:04:05.375Z,4.00
2019-01-10T13:05:32.205Z,4.00
2019-01-10T13:06:59.150Z,4.00
2019-01-10T13:08:25.912Z,4.00
2019-01-10T13:09:52.740Z,4.00
2019-01-10T13:11:19.679Z,4.00
2019-01-10T13:12:46.883Z,4.00
2019-01-10T13:14:13.831Z,3.90
2019-01-10T13:15:42.691Z,4.00
2019-01-10T13:17:09.563Z,4.00
2019-01-10T13:18:36.512Z,4.00
2019-01-10T13:20:04.106Z,4.10
2019-01-10T13:21:31.038Z,4.10
2019-01-10T13:22:57.931Z,4.10
2019-01-10T13:24:24.728Z,4.10
2019-01-10T13:25:59.298Z,4.10
2019-01-10T13:28:53.659Z,4.10
2019-01-10T13:30:21.424Z,4.20
2019-01-10T13:31:50.130Z,4.10
2019-01-10T13:36:36.628Z,4.30
2019-01-10T13:38:03.429Z,4.20
2019-01-10T13:39:23.031Z,4.20
2019-01-10T13:40:42.725Z,4.20
2019-01-10T13:42:02.389Z,4.20
2019-01-10T13:43:22.069Z,4.20
2019-01-10T13:44:41.947Z,4.20
2019-01-10T13:46:01.396Z,4.30
2019-01-10T13:47:24.217Z,4.30
2019-01-10T13:48:44.121Z,4.30
2019-01-10T13:50:03.684Z,4.30
2019-01-10T13:51:23.180Z,4.30
2019-01-10T13:52:45.703Z,4.30
2019-01-10T13:54:08.357Z,4.20
2019-01-10T13:55:31.225Z,4.20
2019-01-10T13:56:50.928Z,4.20
2019-01-10T13:58:10.803Z,4.20
2019-01-10T13:59:30.576Z,4.30
2019-01-10T14:00:50.153Z,4.30
2019-01-10T14:02:09.835Z,4.30
2019-01-10T14:03:29.701Z,4.20
2019-01-10T14:04:49.387Z,4.30
2019-01-10T14:06:09.167Z,4.30
2019-01-10T14:07:28.868Z,4.30
2019-01-10T14:08:48.448Z,4.30
2019-01-10T14:10:08.120Z,4.30
2019-01-10T14:11:34.459Z,4.30
2019-01-10T14:12:54.564Z,4.20
2019-01-10T14:14:14.172Z,4.20
2019-01-10T14:15:33.823Z,4.20
2019-01-10T14:16:53.228Z,4.30
2019-01-10T14:18:15.965Z,4.30
2019-01-10T14:19:35.698Z,4.20
2019-01-10T14:20:55.359Z,4.20
2019-01-10T14:22:15.149Z,4.30
2019-01-10T14:23:34.816Z,4.20
2019-01-10T14:24:57.677Z,4.20
2019-01-10T14:26:17.522Z,4.20
2019-01-10T14:27:37.100Z,4.20
2019-01-10T14:29:00.247Z,4.20
2019-01-10T14:30:19.853Z,4.10
2019-01-10T14:31:39.438Z,4.20
2019-01-10T14:32:59.029Z,4.20
2019-01-10T14:34:21.707Z,4.20
2019-01-10T14:35:41.378Z,4.20
2019-01-10T14:37:00.924Z,4.20
2019-01-10T14:38:20.684Z,4.20
2019-01-10T14:39:40.300Z,4.20
2019-01-10T14:41:00.144Z,4.30
2019-01-10T14:42:19.760Z,4.20
2019-01-10T14:43:39.583Z,4.20
2019-01-10T14:44:59.235Z,4.20
2019-01-10T14:46:18.851Z,4.20
2019-01-10T14:47:38.781Z,4.30
2019-01-10T14:48:58.424Z,4.30
2019-01-10T14:50:21.041Z,4.30
2019-01-10T14:51:40.623Z,4.20
2019-01-10T14:53:00.240Z,4.20
2019-01-10T14:54:19.986Z,4.20
2019-01-10T14:55:39.705Z,4.20
2019-01-10T14:56:59.290Z,4.20
2019-01-10T14:58:18.948Z,4.20
2019-01-10T14:59:38.806Z,4.20
2019-01-10T15:00:58.325Z,4.30
2019-01-10T15:02:21.136Z,4.10
2019-01-10T15:03:40.776Z,4.20
2019-01-10T15:05:00.550Z,4.10
2019-01-10T15:06:20.353Z,4.20
2019-01-10T15:07:40.077Z,4.10
2019-01-10T15:08:59.796Z,4.10
2019-01-10T15:10:19.715Z,4.10
2019-01-10T15:11:39.466Z,4.10